Time;durP1;ratioP1;P1;durP2;ratioP2;P2;SDS_P1;SDS_P2;PMS_P1;PMS_P2;Temp;Humidity;BMP_temperature;BMP_pressure;BME280_temperature;BME280_humidity;BME280_pressure;Samples;Min_cycle;Max_cycle;Signal;HPM_P1;HPM_P2
2022/10/21 00:00:35;;;;;;;22.70;14.85;;;;;;;13.98;75.93;100386.53;841198;23;1001;-78
2022/10/21 00:00:57;;;;;;;22.42;13.40;;;;;;;14.05;75.94;100387.44;835298;23;1465;-78
2022/10/21 00:01:17;;;;;;;23.65;13.25;;;;;;;14.02;75.85;100376.94;840267;23;1100;-78
2022/10/21 00:01:38;;;;;;;23.73;14.00;;;;;;;14.07;76.06;100372.59;839467;23;1899;-78
2022/10/21 00:01:59;;;;;;;24.83;14.60;;;;;;;14.14;76.29;100377.06;835815;23;1043;-78
2022/10/21 00:02:19;;;;;;;22.98;14.10;;;;;;;14.23;76.43;100384.09;835806;23;1134;-78
2022/10/21 00:02:40;;;;;;;21.87;13.60;;;;;;;14.28;76.48;100384.13;841028;23;993;-78
2022/10/21 00:03:01;;;;;;;22.23;14.35;;;;;;;14.32;76.14;100383.31;837175;23;749;-78
2022/10/21 00:03:23;;;;;;;27.08;16.13;;;;;;;14.36;76.19;100377.19;835886;23;1102;-78
2022/10/21 00:03:44;;;;;;;27.02;16.27;;;;;;;14.44;76.07;100375.47;835547;23;926;-78
2022/10/21 00:04:05;;;;;;;25.60;15.77;;;;;;;14.48;76.12;100382.50;837120;23;1079;-79
2022/10/21 00:04:26;;;;;;;22.67;14.93;;;;;;;14.55;76.49;100383.41;835735;23;1293;-78
2022/10/21 00:04:46;;;;;;;23.55;15.30;;;;;;;14.55;76.10;100379.94;839724;23;1055;-78
2022/10/21 00:05:07;;;;;;;26.00;15.63;;;;;;;14.57;75.89;100376.41;841194;23;1043;-78
2022/10/21 00:05:28;;;;;;;27.03;16.50;;;;;;;14.62;75.96;100379.09;841318;23;708;-77
2022/10/21 00:05:49;;;;;;;27.50;17.00;;;;;;;14.58;75.59;100372.06;839463;23;1164;-78
2022/10/21 00:06:10;;;;;;;24.60;16.25;;;;;;;14.60;75.76;100384.34;835667;23;1254;-78
2022/10/21 00:06:49;;;;;;;22.35;15.32;;;;;;;14.72;75.86;100391.38;831741;23;1107;-78
2022/10/21 00:07:10;;;;;;;21.08;14.32;;;;;;;14.77;75.76;100380.91;839674;23;1183;-78
2022/10/21 00:07:30;;;;;;;21.60;14.27;;;;;;;14.86;76.48;100385.34;841131;23;801;-78
2022/10/21 00:07:51;;;;;;;22.08;14.38;;;;;;;14.88;76.28;100370.44;845165;23;926;-78
2022/10/21 00:08:12;;;;;;;23.95;15.07;;;;;;;14.98;76.40;100381.88;845140;23;968;-78
2022/10/21 00:08:32;;;;;;;25.55;15.55;;;;;;;14.99;75.84;100379.22;845114;23;822;-79
2022/10/21 00:08:53;;;;;;;27.23;15.97;;;;;;;15.03;76.09;100385.38;839636;23;1151;-79
2022/10/21 00:09:13;;;;;;;25.83;15.60;;;;;;;15.04;76.18;100372.25;837210;23;1070;-78
2022/10/21 00:09:34;;;;;;;25.13;15.50;;;;;;;15.10;76.13;100367.91;843325;23;1247;-78
2022/10/21 00:09:55;;;;;;;25.92;15.30;;;;;;;15.12;76.20;100361.75;848923;23;980;-79
2022/10/21 00:10:15;;;;;;;26.43;15.70;;;;;;;15.25;76.18;100385.47;849332;23;1052;-79
2022/10/21 00:10:36;;;;;;;27.13;16.10;;;;;;;15.23;75.90;100381.97;849135;23;847;-79
2022/10/21 00:11:01;;;;;;;25.52;16.13;;;;;;;15.29;75.75;100381.97;849265;23;1080;-79
2022/10/21 00:11:21;;;;;;;24.40;15.70;;;;;;;15.31;75.67;100386.34;849163;23;846;-79
2022/10/21 00:11:42;;;;;;;24.50;15.47;;;;;;;15.35;75.86;100387.25;839535;23;1134;-78
2022/10/21 00:12:04;;;;;;;27.75;16.20;;;;;;;15.38;75.91;100370.59;841129;23;1117;-78
2022/10/21 00:12:27;;;;;;;31.50;16.70;;;;;;;15.40;75.73;100379.34;839854;23;857;-79
2022/10/21 00:12:48;;;;;;;32.25;17.00;;;;;;;15.41;75.86;100379.38;837120;23;1037;-78
2022/10/21 00:13:09;;;;;;;29.17;16.30;;;;;;;15.47;75.72;100392.53;837150;23;954;-78
2022/10/21 00:13:31;;;;;;;24.42;15.80;;;;;;;15.48;75.74;100382.88;839704;23;1246;-79
2022/10/21 00:13:52;;;;;;;23.00;15.30;;;;;;;15.47;75.71;100387.28;841182;23;974;-78
2022/10/21 00:14:13;;;;;;;22.10;14.77;;;;;;;15.56;75.66;100381.13;843732;23;1248;-79
2022/10/21 00:14:33;;;;;;;23.98;14.68;;;;;;;15.61;75.85;100395.16;841187;23;759;-78
2022/10/21 00:14:54;;;;;;;23.45;14.45;;;;;;;15.61;75.91;100381.16;837169;23;994;-78
2022/10/21 00:15:15;;;;;;;27.07;14.67;;;;;;;15.62;76.13;100383.78;841288;23;986;-79
2022/10/21 00:15:35;;;;;;;26.75;14.90;;;;;;;15.71;75.97;100390.81;839190;23;1170;-79
2022/10/21 00:16:10;;;;;;;26.75;15.18;;;;;;;15.68;75.80;100380.25;835651;23;1145;-78
2022/10/21 00:16:30;;;;;;;25.23;15.65;;;;;;;15.77;76.18;100384.66;839666;23;913;-78
2022/10/21 00:16:51;;;;;;;25.10;15.80;;;;;;;15.77;76.07;100374.13;835831;23;1189;-78
2022/10/21 00:17:11;;;;;;;26.63;15.70;;;;;;;15.81;76.09;100373.28;845220;23;973;-78
2022/10/21 00:17:38;;;;;;;28.83;15.83;;;;;;;15.95;75.99;100394.31;839741;23;1053;-79
2022/10/21 00:17:58;;;;;;;28.92;16.13;;;;;;;15.96;75.79;100387.28;837141;23;809;-79
2022/10/21 00:18:19;;;;;;;30.77;16.40;;;;;;;15.98;75.73;100394.31;839707;23;1151;-77
2022/10/21 00:18:42;;;;;;;29.92;16.60;;;;;;;16.04;75.90;100390.78;835663;23;1285;-78
2022/10/21 00:19:02;;;;;;;30.83;17.00;;;;;;;16.08;76.13;100384.66;837190;23;1129;-78
2022/10/21 00:19:23;;;;;;;30.43;16.93;;;;;;;16.13;75.97;100382.00;833333;23;814;-78
2022/10/21 00:19:44;;;;;;;27.90;16.70;;;;;;;16.10;75.98;100377.63;838583;23;1139;-78
2022/10/21 00:20:06;;;;;;;27.05;16.40;;;;;;;16.15;75.97;100385.50;839728;23;1317;-79
2022/10/21 00:20:26;;;;;;;27.35;16.40;;;;;;;16.13;75.82;100371.47;837514;23;810;-78
2022/10/21 00:20:47;;;;;;;27.73;16.13;;;;;;;16.14;75.66;100370.59;831987;23;1154;-80
2022/10/21 00:21:10;;;;;;;28.75;15.65;;;;;;;16.20;75.72;100377.59;836052;23;1289;-78
2022/10/21 00:21:31;;;;;;;28.08;15.95;;;;;;;16.18;75.61;100372.38;841256;23;1897;-79
2022/10/21 00:21:51;;;;;;;29.67;16.10;;;;;;;16.22;75.79;100375.88;835843;23;1111;-78
2022/10/21 00:22:12;;;;;;;28.60;16.65;;;;;;;16.21;75.64;100368.84;839928;23;1180;-79
2022/10/21 00:22:34;;;;;;;29.10;16.92;;;;;;;16.25;75.63;100373.25;843980;23;1206;-78
2022/10/21 00:22:54;;;;;;;29.92;16.70;;;;;;;16.27;75.60;100379.38;841357;23;1001;-78
2022/10/21 00:23:15;;;;;;;31.60;17.00;;;;;;;16.29;75.66;100380.28;841300;23;1001;-78
2022/10/21 00:23:35;;;;;;;31.67;16.83;;;;;;;16.28;75.60;100370.59;835909;23;1147;-78
2022/10/21 00:23:56;;;;;;;31.48;16.90;;;;;;;16.32;75.68;100382.88;837298;23;1076;-78
2022/10/21 00:24:16;;;;;;;30.90;16.33;;;;;;;16.32;75.70;100377.63;840024;23;1214;-79
2022/10/21 00:24:37;;;;;;;27.98;15.95;;;;;;;16.39;76.00;100373.22;841209;23;1110;-78
2022/10/21 00:24:58;;;;;;;26.48;16.30;;;;;;;16.40;75.76;100360.06;845507;23;722;-79
2022/10/21 00:25:19;;;;;;;29.40;17.25;;;;;;;16.43;75.68;100360.03;847952;23;1304;-79
2022/10/21 00:25:39;;;;;;;29.30;17.33;;;;;;;16.46;75.71;100368.81;843810;23;1133;-78
2022/10/21 00:26:01;;;;;;;31.15;17.40;;;;;;;16.50;75.66;100373.19;845398;23;755;-79
2022/10/21 00:26:21;;;;;;;30.77;17.35;;;;;;;16.39;75.62;100358.31;841335;23;826;-79
2022/10/21 00:26:42;;;;;;;33.03;17.57;;;;;;;16.44;75.34;100367.06;839772;23;1138;-79
2022/10/21 00:27:03;;;;;;;29.67;17.08;;;;;;;16.46;75.40;100371.47;836014;23;1177;-79
2022/10/21 00:27:23;;;;;;;29.85;16.60;;;;;;;16.42;75.54;100368.81;837345;23;784;-79
2022/10/21 00:27:44;;;;;;;29.60;16.33;;;;;;;16.42;75.70;100363.53;837177;23;970;-79
2022/10/21 00:28:05;;;;;;;31.15;16.23;;;;;;;16.49;75.76;100374.06;841204;23;1135;-81
2022/10/21 00:28:27;;;;;;;28.58;16.05;;;;;;;16.49;75.67;100371.44;841352;23;841;-79
2022/10/21 00:28:47;;;;;;;27.25;16.27;;;;;;;16.41;75.69;100364.44;841190;23;1052;-79
2022/10/21 00:29:08;;;;;;;28.63;16.80;;;;;;;16.43;75.94;100364.44;843877;23;1032;-79
2022/10/21 00:29:29;;;;;;;28.75;17.10;;;;;;;16.46;76.01;100364.41;839524;23;1381;-79
2022/10/21 00:29:50;;;;;;;32.10;17.20;;;;;;;16.44;75.92;100371.44;840883;23;1082;-79
2022/10/21 00:30:11;;;;;;;31.75;17.30;;;;;;;16.50;76.04;100373.19;841102;23;949;-79
2022/10/21 00:30:32;;;;;;;31.02;16.90;;;;;;;16.46;76.19;100360.94;844016;23;1216;-79
2022/10/21 00:30:53;;;;;;;27.83;17.27;;;;;;;16.42;76.12;100358.28;839700;23;1063;-79
2022/10/21 00:31:15;;;;;;;27.23;16.60;;;;;;;16.46;76.27;100353.03;839874;23;1305;-79
2022/10/21 00:31:36;;;;;;;28.33;16.92;;;;;;;16.48;76.08;100351.25;839759;23;1354;-79
2022/10/21 00:31:56;;;;;;;29.27;16.85;;;;;;;16.46;76.10;100363.56;845238;23;1184;-78
2022/10/21 00:32:17;;;;;;;29.70;17.33;;;;;;;16.47;75.95;100367.94;839879;23;1143;-78
2022/10/21 00:32:38;;;;;;;29.05;17.10;;;;;;;16.44;76.22;100355.66;841261;23;988;-79
2022/10/21 00:32:58;;;;;;;30.83;16.90;;;;;;;16.45;76.10;100360.03;831953;23;1121;-79
2022/10/21 00:33:19;;;;;;;28.45;16.10;;;;;;;16.42;76.19;100353.00;833358;23;1074;-79
2022/10/21 00:33:41;;;;;;;27.80;15.73;;;;;;;16.44;76.29;100356.53;835812;23;1298;-79
2022/10/21 00:34:01;;;;;;;26.02;15.75;;;;;;;16.47;76.08;100360.91;837209;23;817;-79
2022/10/21 00:34:22;;;;;;;26.90;15.70;;;;;;;16.52;76.45;100369.66;839813;23;1114;-81
2022/10/21 00:34:43;;;;;;;28.00;16.10;;;;;;;16.51;76.30;100367.03;841388;23;898;-79
2022/10/21 00:35:04;;;;;;;26.33;15.90;;;;;;;16.51;76.31;100359.13;839815;23;1259;-80
2022/10/21 00:35:25;;;;;;;25.08;16.20;;;;;;;16.50;76.38;100354.75;832041;23;1238;-79
2022/10/21 00:35:56;;;;;;;24.40;16.25;;;;;;;16.51;76.22;100349.50;835847;23;1146;-79
2022/10/21 00:36:17;;;;;;;25.83;16.30;;;;;;;16.57;76.29;100356.47;835661;23;1242;-79
2022/10/21 00:36:38;;;;;;;24.67;15.93;;;;;;;16.57;76.25;100356.47;837343;23;1032;-80
2022/10/21 00:36:58;;;;;;;27.10;16.67;;;;;;;16.53;76.20;100354.75;835856;23;1297;-79
2022/10/21 00:37:19;;;;;;;25.20;16.52;;;;;;;16.52;76.24;100350.34;835817;23;1417;-79
2022/10/21 00:37:40;;;;;;;27.38;16.70;;;;;;;16.56;76.25;100357.38;839690;23;1239;-79
2022/10/21 00:38:01;;;;;;;25.10;16.40;;;;;;;16.54;76.16;100349.47;844064;23;1125;-79
2022/10/21 00:38:22;;;;;;;25.08;16.52;;;;;;;16.56;76.14;100350.34;843972;23;1255;-79
2022/10/21 00:38:44;;;;;;;23.70;16.40;;;;;;;16.55;76.08;100343.31;845156;23;1099;-79
2022/10/21 00:39:05;;;;;;;26.50;17.15;;;;;;;16.58;75.92;100347.69;845303;23;1115;-79
2022/10/21 00:39:26;;;;;;;26.30;16.50;;;;;;;16.57;76.07;100349.47;839933;23;1157;-79
2022/10/21 00:39:46;;;;;;;25.92;16.33;;;;;;;16.54;75.95;100345.97;843230;23;1045;-79
2022/10/21 00:40:08;;;;;;;26.10;15.35;;;;;;;16.58;75.86;100353.84;835955;23;1270;-79
2022/10/21 00:40:29;;;;;;;27.50;16.00;;;;;;;16.58;76.01;100358.22;841381;23;778;-79
2022/10/21 00:40:50;;;;;;;27.90;16.42;;;;;;;16.55;76.05;100353.84;839678;23;1246;-79
2022/10/21 00:41:12;;;;;;;27.30;16.90;;;;;;;16.51;75.94;100340.69;841397;23;1077;-79
2022/10/21 00:41:32;;;;;;;25.40;16.40;;;;;;;16.53;75.87;100342.44;843773;23;1910;-79
2022/10/21 00:41:53;;;;;;;26.42;16.00;;;;;;;16.50;75.89;100338.94;845223;23;1082;-79
2022/10/21 00:42:17;;;;;;;27.00;16.10;;;;;;;16.54;75.88;100346.81;836057;23;1186;-79
2022/10/21 00:42:39;;;;;;;27.00;16.15;;;;;;;16.51;76.11;100344.22;839735;23;1241;-79
2022/10/21 00:42:59;;;;;;;26.60;16.60;;;;;;;16.51;76.10;100340.69;839775;23;1246;-79
2022/10/21 00:43:21;;;;;;;26.02;16.30;;;;;;;16.54;75.91;100348.59;839913;23;1184;-79
2022/10/21 00:43:52;;;;;;;25.33;15.68;;;;;;;16.54;76.04;100343.34;839751;23;1358;-79
2022/10/21 00:44:13;;;;;;;27.88;15.60;;;;;;;16.53;76.08;100344.22;837334;23;1063;-79
2022/10/21 00:44:35;;;;;;;26.40;15.43;;;;;;;16.50;76.29;100338.94;837272;23;806;-81
2022/10/21 00:45:15;;;;;;;23.95;15.70;;;;;;;16.58;76.20;100342.44;840174;23;1212;-78
2022/10/21 00:45:36;;;;;;;22.63;15.45;;;;;;;16.52;76.14;100337.19;843865;23;1943;-79
2022/10/21 00:46:02;;;;;;;23.73;15.50;;;;;;;16.56;75.99;100336.28;845263;23;1325;-79
2022/10/21 00:46:38;;;;;;;24.58;15.25;;;;;;;16.54;75.98;100338.94;839973;23;1195;-79
2022/10/21 00:47:08;;;;;;;27.15;15.25;;;;;;;16.58;75.73;100337.16;843759;23;822;-79
2022/10/21 00:47:30;;;;;;;26.50;16.17;;;;;;;16.60;75.78;100345.97;839790;23;1316;-78
2022/10/21 00:47:58;;;;;;;26.83;16.50;;;;;;;16.61;75.55;100342.44;839737;23;1327;-79
2022/10/21 00:48:27;;;;;;;25.75;15.75;;;;;;;16.64;75.59;100342.41;839919;23;1239;-79
2022/10/21 00:48:56;;;;;;;26.42;15.65;;;;;;;16.65;75.64;100341.53;849353;23;1042;-79
2022/10/21 00:49:21;;;;;;;26.15;15.93;;;;;;;16.66;75.57;100350.31;840112;23;1193;-79
2022/10/21 00:50:02;;;;;;;23.15;15.10;;;;;;;16.62;75.70;100333.66;840851;23;798;-79
2022/10/21 00:50:56;;;;;;;22.25;15.25;;;;;;;16.60;75.71;100330.16;841508;23;964;-79
2022/10/21 00:51:17;;;;;;;23.83;15.60;;;;;;;16.61;75.64;100326.63;835832;23;1041;-79
2022/10/21 00:51:39;;;;;;;25.27;15.23;;;;;;;16.63;75.73;100331.88;829951;23;1300;-78
2022/10/21 00:52:04;;;;;;;23.80;15.32;;;;;;;16.64;75.67;100326.59;837356;23;814;-79
2022/10/21 00:52:26;;;;;;;24.10;15.50;;;;;;;16.67;75.74;100329.22;839821;23;1284;-79
2022/10/21 00:52:47;;;;;;;23.20;15.93;;;;;;;16.65;75.35;100327.50;842900;23;1335;-79
2022/10/21 00:53:12;;;;;;;23.67;15.90;;;;;;;16.70;75.56;100339.75;845238;23;1052;-79
2022/10/21 00:53:34;;;;;;;24.40;16.30;;;;;;;16.67;75.46;100328.34;839984;23;1107;-79
2022/10/21 00:53:56;;;;;;;24.15;16.35;;;;;;;16.65;75.48;100328.34;835838;23;1211;-78
2022/10/21 00:54:21;;;;;;;23.98;15.95;;;;;;;16.61;75.42;100318.72;841196;23;985;-79
2022/10/21 00:54:43;;;;;;;24.17;15.90;;;;;;;16.57;75.60;100319.59;843810;23;1028;-78
2022/10/21 00:55:05;;;;;;;23.20;15.70;;;;;;;16.55;75.55;100316.97;843906;23;1105;-79
2022/10/21 00:55:31;;;;;;;23.08;15.73;;;;;;;16.59;75.54;100317.84;845710;23;878;-79
2022/10/21 00:55:57;;;;;;;23.08;15.50;;;;;;;16.63;75.62;100323.97;837065;23;962;-78
2022/10/21 00:56:23;;;;;;;22.73;15.55;;;;;;;16.57;75.40;100309.06;837377;23;1089;-78
2022/10/21 00:56:47;;;;;;;22.42;16.10;;;;;;;16.60;75.43;100316.97;843718;23;1321;-80
2022/10/21 00:57:08;;;;;;;22.85;15.80;;;;;;;16.63;75.37;100314.31;845391;23;980;-78
2022/10/21 00:57:32;;;;;;;22.85;15.15;;;;;;;16.64;75.61;100320.44;843985;23;1210;-79
2022/10/21 00:57:54;;;;;;;24.05;14.80;;;;;;;16.59;75.55;100317.84;831885;23;955;-79
2022/10/21 00:58:18;;;;;;;25.48;15.60;;;;;;;16.63;75.61;100319.59;835762;23;1108;-79
2022/10/21 00:58:39;;;;;;;26.20;16.17;;;;;;;16.60;75.41;100314.34;835942;23;1481;-79
2022/10/21 00:59:03;;;;;;;26.52;16.27;;;;;;;16.64;75.74;100317.81;836111;23;1326;-79
2022/10/21 00:59:28;;;;;;;28.92;16.30;;;;;;;16.63;75.57;100323.97;836074;23;1141;-79
2022/10/21 00:59:55;;;;;;;25.95;15.55;;;;;;;16.59;75.46;100315.19;841319;23;966;-79
2022/10/21 01:00:15;;;;;;;24.75;15.80;;;;;;;16.57;75.45;100306.44;840041;23;1241;-79
2022/10/21 01:00:36;;;;;;;25.13;16.00;;;;;;;16.61;75.39;100321.34;839596;23;1385;-78
2022/10/21 01:00:59;;;;;;;26.15;16.30;;;;;;;16.58;75.30;100306.44;839871;23;1424;-79
2022/10/21 01:01:20;;;;;;;26.35;16.23;;;;;;;16.60;75.12;100314.34;839936;23;1187;-79
2022/10/21 01:01:40;;;;;;;29.45;16.42;;;;;;;16.60;75.56;100318.72;837000;23;1902;-79
2022/10/21 01:02:02;;;;;;;30.30;16.45;;;;;;;16.58;75.29;100310.81;837608;23;783;-79
2022/10/21 01:02:23;;;;;;;30.63;16.70;;;;;;;16.55;75.31;100306.44;833530;23;845;-79
2022/10/21 01:02:44;;;;;;;26.98;16.05;;;;;;;16.61;75.22;100331.91;833473;23;1107;-79
2022/10/21 01:03:04;;;;;;;26.00;15.32;;;;;;;16.56;75.32;100312.59;835984;23;1237;-79
2022/10/21 01:03:27;;;;;;;25.42;15.40;;;;;;;16.60;75.23;100324.88;837492;23;771;-79
2022/10/21 01:03:49;;;;;;;25.40;15.40;;;;;;;16.61;75.06;100318.72;835948;23;1338;-79
2022/10/21 01:04:10;;;;;;;25.13;15.50;;;;;;;16.62;75.35;100325.75;835972;23;1095;-79
2022/10/21 01:04:31;;;;;;;22.70;15.50;;;;;;;16.62;75.18;100317.84;839884;23;1085;-79
2022/10/21 01:04:56;;;;;;;21.60;15.20;;;;;;;16.64;75.07;100325.72;840155;23;1058;-79
2022/10/21 01:05:17;;;;;;;20.23;14.48;;;;;;;16.61;75.05;100318.72;836194;23;1102;-79
2022/10/21 01:05:41;;;;;;;20.23;14.50;;;;;;;16.66;75.13;100332.72;841198;23;1067;-79
2022/10/21 01:06:05;;;;;;;21.70;15.15;;;;;;;16.63;75.20;100318.69;836063;23;1366;-78
2022/10/21 01:06:27;;;;;;;25.38;15.65;;;;;;;16.69;75.30;100331.84;836072;23;1135;-79
2022/10/21 01:06:49;;;;;;;24.63;15.60;;;;;;;16.68;75.13;100331.00;840104;23;1359;-79
2022/10/21 01:07:10;;;;;;;25.77;15.63;;;;;;;16.69;75.09;100330.09;840181;23;1113;-80
2022/10/21 01:07:32;;;;;;;25.08;16.25;;;;;;;16.71;75.27;100333.59;832283;23;1543;-79
2022/10/21 01:07:53;;;;;;;25.50;16.13;;;;;;;16.77;75.20;100342.38;837729;23;985;-79
2022/10/21 01:08:14;;;;;;;22.83;15.77;;;;;;;16.69;75.01;100324.84;840021;23;1446;-79
2022/10/21 01:08:35;;;;;;;22.57;15.50;;;;;;;16.78;75.04;100338.84;844109;23;1172;-79
2022/10/21 01:08:58;;;;;;;24.70;15.73;;;;;;;16.81;75.12;100338.81;844237;23;1354;-79
2022/10/21 01:09:20;;;;;;;25.02;15.90;;;;;;;16.82;74.87;100341.47;832402;23;1277;-79
2022/10/21 01:09:40;;;;;;;24.02;15.85;;;;;;;16.78;74.96;100334.44;833747;23;958;-79
2022/10/21 01:10:01;;;;;;;22.67;16.23;;;;;;;16.86;74.85;100344.97;836471;23;1134;-79
2022/10/21 01:10:21;;;;;;;24.92;16.70;;;;;;;16.82;75.02;100344.09;837830;23;1088;-79
2022/10/21 01:10:42;;;;;;;25.70;16.80;;;;;;;16.80;74.81;100330.06;840485;23;1339;-78
2022/10/21 01:11:05;;;;;;;25.50;16.52;;;;;;;16.81;74.76;100336.19;844686;23;1201;-79
2022/10/21 01:11:27;;;;;;;22.33;15.88;;;;;;;16.76;74.89;100330.94;850378;23;775;-79
2022/10/21 01:11:48;;;;;;;21.20;15.57;;;;;;;16.78;75.01;100331.81;840793;23;1226;-79
2022/10/21 01:12:23;;;;;;;21.55;15.55;;;;;;;16.78;75.09;100328.31;833093;23;1286;-79
2022/10/21 01:13:09;;;;;;;25.10;16.60;;;;;;;16.80;75.15;100326.53;844704;23;1139;-79
2022/10/21 01:13:52;;;;;;;25.50;16.52;;;;;;;16.77;75.14;100326.56;843972;23;1053;-78
2022/10/21 01:14:18;;;;;;;27.17;15.45;;;;;;;16.81;75.23;100333.56;847448;23;1225;-79
2022/10/21 01:14:55;;;;;;;26.00;15.65;;;;;;;16.87;75.16;100338.78;840286;23;1472;-79
2022/10/21 01:15:34;;;;;;;25.15;16.35;;;;;;;16.80;74.97;100318.63;844340;23;1010;-79
2022/10/21 01:15:54;;;;;;;25.42;16.00;;;;;;;16.84;74.98;100342.31;840969;23;1272;-79
2022/10/21 01:16:22;;;;;;;23.63;15.30;;;;;;;16.76;75.12;100330.94;844905;23;1122;-79
2022/10/21 01:16:49;;;;;;;22.10;15.25;;;;;;;16.81;75.17;100338.81;846088;23;1040;-79
2022/10/21 01:17:46;;;;;;;22.85;16.05;;;;;;;16.80;75.20;100332.69;841803;23;1045;-79
2022/10/21 01:18:20;;;;;;;25.27;16.40;;;;;;;16.80;75.30;100327.41;840547;23;1821;-79
2022/10/21 01:18:59;;;;;;;25.50;16.77;;;;;;;16.84;75.12;100338.81;845762;23;966;-79
2022/10/21 01:19:54;;;;;;;22.55;16.42;;;;;;;16.80;74.95;100342.34;844322;23;1274;-79
2022/10/21 01:20:26;;;;;;;22.75;16.30;;;;;;;16.79;75.00;100341.44;840355;23;1206;-78
2022/10/21 01:21:23;;;;;;;21.67;15.55;;;;;;;16.72;75.14;100337.97;840262;23;1015;-79
2022/10/21 01:21:56;;;;;;;24.65;16.65;;;;;;;16.68;75.11;100333.63;839846;23;1889;-79
2022/10/21 01:22:41;;;;;;;26.23;17.60;;;;;;;16.66;75.16;100339.78;840174;23;1091;-79
2022/10/21 01:23:07;;;;;;;27.92;17.33;;;;;;;16.64;75.20;100336.25;841856;23;813;-79
2022/10/21 01:23:49;;;;;;;26.77;17.50;;;;;;;16.61;75.15;100334.53;845660;23;833;-79
2022/10/21 01:24:31;;;;;;;24.52;16.98;;;;;;;16.61;75.49;100334.53;845755;23;993;-79
2022/10/21 01:25:31;;;;;;;23.88;16.38;;;;;;;16.60;75.37;100337.16;839928;23;1245;-79
2022/10/21 01:26:48;;;;;;;24.77;16.80;;;;;;;16.61;75.36;100338.91;841398;23;1185;-79
2022/10/21 01:27:25;;;;;;;25.10;16.50;;;;;;;16.55;75.40;100321.38;829405;23;979;-79
2022/10/21 01:28:17;;;;;;;25.52;16.80;;;;;;;16.61;75.51;100331.91;828666;23;1061;-79
2022/10/21 01:28:53;;;;;;;26.20;17.23;;;;;;;16.60;75.70;100339.78;836036;23;1114;-79
2022/10/21 01:29:31;;;;;;;33.13;17.85;;;;;;;16.58;75.66;100330.16;840041;23;1116;-79
2022/10/21 01:29:54;;;;;;;25.63;17.73;;;;;;;16.58;75.58;100335.41;835986;23;1256;-79
2022/10/21 01:30:27;;;;;;;24.65;17.38;;;;;;;16.59;75.56;100338.91;841504;23;1095;-79
2022/10/21 01:30:54;;;;;;;27.10;16.60;;;;;;;16.55;75.49;100332.78;835775;23;1129;-79
2022/10/21 01:31:23;;;;;;;27.65;16.65;;;;;;;16.54;75.47;100324.91;840193;23;1451;-80
2022/10/21 01:32:05;;;;;;;26.45;17.15;;;;;;;16.58;75.34;100329.25;831953;23;1183;-79
2022/10/21 01:33:07;;;;;;;24.58;16.15;;;;;;;16.60;75.29;100340.69;837516;23;829;-79
2022/10/21 01:33:39;;;;;;;25.45;17.00;;;;;;;16.53;75.45;100318.75;837833;23;1302;-79
2022/10/21 01:34:21;;;;;;;22.75;16.35;;;;;;;16.59;75.53;100333.63;831576;23;1323;-79
2022/10/21 01:34:52;;;;;;;24.92;16.33;;;;;;;16.62;75.47;100332.75;835607;23;1135;-79
2022/10/21 01:35:21;;;;;;;26.48;16.38;;;;;;;16.59;75.52;100328.38;839624;23;1112;-80
2022/10/21 01:36:27;;;;;;;23.45;16.25;;;;;;;16.53;75.55;100337.19;841228;23;1079;-79
2022/10/21 01:36:53;;;;;;;25.25;16.70;;;;;;;16.49;75.57;100326.66;841279;23;1066;-79
2022/10/21 01:37:22;;;;;;;26.77;17.25;;;;;;;16.49;75.58;100331.94;843905;23;1386;-79
2022/10/21 01:37:50;;;;;;;28.00;17.75;;;;;;;16.56;75.79;100331.91;835844;23;1231;-79
2022/10/21 01:38:29;;;;;;;26.15;16.80;;;;;;;16.55;75.77;100335.41;836103;23;1835;-79
2022/10/21 01:39:10;;;;;;;26.73;16.63;;;;;;;16.55;75.78;100334.56;835828;23;938;-79
2022/10/21 01:39:44;;;;;;;25.48;16.65;;;;;;;16.49;75.72;100321.41;837143;23;1338;-78
2022/10/21 01:40:16;;;;;;;26.52;17.30;;;;;;;16.50;75.98;100326.66;841425;23;1114;-79
2022/10/21 01:40:43;;;;;;;26.73;17.30;;;;;;;16.53;75.74;100334.53;841049;23;1324;-79
2022/10/21 01:41:24;;;;;;;30.02;17.20;;;;;;;16.53;75.58;100328.41;844002;23;1144;-79
2022/10/21 01:41:54;;;;;;;31.92;17.65;;;;;;;16.60;75.56;100330.16;835677;23;1121;-79
2022/10/21 01:42:40;;;;;;;33.08;17.77;;;;;;;16.54;75.46;100322.25;837231;23;1019;-79
2022/10/21 01:43:19;;;;;;;23.58;17.25;;;;;;;16.55;75.64;100331.91;840670;23;873;-80
2022/10/21 01:43:54;;;;;;;26.85;18.63;;;;;;;16.59;75.45;100338.91;840056;23;1071;-79
2022/10/21 01:44:23;;;;;;;27.17;18.65;;;;;;;16.50;75.48;100323.16;841448;23;1079;-79
2022/10/21 01:44:54;;;;;;;27.35;17.95;;;;;;;16.48;75.33;100325.81;843815;23;1178;-79
2022/10/21 01:45:32;;;;;;;26.70;17.58;;;;;;;16.53;75.34;100334.53;845229;23;977;-79
2022/10/21 01:46:01;;;;;;;27.27;17.30;;;;;;;16.47;75.13;100323.16;841137;23;1045;-78
2022/10/21 01:46:39;;;;;;;26.45;16.90;;;;;;;16.54;75.23;100325.75;837270;23;1116;-79
2022/10/21 01:47:05;;;;;;;27.50;16.35;;;;;;;16.52;75.13;100316.09;841488;23;790;-79
2022/10/21 01:47:32;;;;;;;31.02;16.92;;;;;;;16.58;74.91;100322.25;841573;23;755;-79
2022/10/21 01:47:57;;;;;;;28.05;16.98;;;;;;;16.52;74.86;100317.00;848927;23;1064;-79
2022/10/21 01:48:29;;;;;;;26.02;17.35;;;;;;;16.51;74.96;100314.34;844271;23;1093;-79
2022/10/21 01:48:55;;;;;;;25.50;16.92;;;;;;;16.53;74.83;100324.00;841877;23;1126;-79
2022/10/21 01:49:25;;;;;;;25.63;16.27;;;;;;;16.45;74.87;100315.25;838127;23;1229;-79
2022/10/21 01:49:58;;;;;;;26.58;16.33;;;;;;;16.52;75.06;100326.63;836798;23;957;-79
2022/10/21 01:50:25;;;;;;;27.35;17.02;;;;;;;16.45;74.95;100310.00;839904;23;996;-79
2022/10/21 01:50:52;;;;;;;25.90;16.25;;;;;;;16.47;74.96;100313.50;835322;23;1241;-79
2022/10/21 01:51:15;;;;;;;21.95;15.68;;;;;;;16.43;74.96;100310.00;835729;23;1281;-79
2022/10/21 01:51:36;;;;;;;24.88;16.10;;;;;;;16.44;74.97;100314.41;841229;23;918;-79
2022/10/21 01:51:59;;;;;;;24.45;15.75;;;;;;;16.45;74.95;100320.53;837159;23;1260;-79
2022/10/21 01:52:20;;;;;;;26.55;16.17;;;;;;;16.43;74.83;100317.03;835744;23;1313;-79
2022/10/21 01:52:46;;;;;;;25.52;16.42;;;;;;;16.41;74.91;100322.31;836933;23;1099;-79
2022/10/21 01:53:10;;;;;;;25.65;16.67;;;;;;;16.36;74.91;100303.03;831787;23;1408;-79
2022/10/21 01:53:45;;;;;;;25.27;17.13;;;;;;;16.31;74.90;100291.63;831921;23;1268;-79
2022/10/21 01:54:11;;;;;;;24.35;16.80;;;;;;;16.36;74.74;100308.28;835971;23;1459;-79
2022/10/21 01:54:42;;;;;;;22.23;15.68;;;;;;;16.35;74.90;100309.16;837277;23;751;-79
2022/10/21 01:55:06;;;;;;;26.05;16.50;;;;;;;16.30;75.05;100301.25;839759;23;1304;-79
2022/10/21 01:55:30;;;;;;;29.85;17.38;;;;;;;16.33;74.90;100310.06;835868;23;1105;-78
2022/10/21 01:55:52;;;;;;;30.83;17.25;;;;;;;16.28;75.03;100300.41;840820;23;1080;-79
2022/10/21 01:56:15;;;;;;;28.25;16.88;;;;;;;16.31;75.11;100307.41;838925;23;1484;-79
2022/10/21 01:56:37;;;;;;;28.00;16.85;;;;;;;16.26;75.05;100299.53;839026;23;1091;-79
2022/10/21 01:57:01;;;;;;;27.95;17.20;;;;;;;16.23;74.96;100299.50;845440;23;829;-79
2022/10/21 01:57:26;;;;;;;28.17;16.88;;;;;;;16.23;74.77;100298.63;841155;23;1264;-79
2022/10/21 01:57:52;;;;;;;27.90;16.35;;;;;;;16.31;74.65;100299.53;845075;23;972;-79
2022/10/21 01:58:21;;;;;;;26.98;16.77;;;;;;;16.28;74.46;100286.34;839744;23;1494;-79
2022/10/21 01:58:44;;;;;;;24.95;16.40;;;;;;;16.30;74.38;100287.25;839659;23;1239;-79
2022/10/21 01:59:09;;;;;;;24.27;16.65;;;;;;;16.29;74.44;100298.66;831782;23;1532;-79
2022/10/21 01:59:31;;;;;;;25.88;16.98;;;;;;;16.28;74.41;100295.13;838701;23;948;-79
2022/10/21 01:59:53;;;;;;;24.20;16.70;;;;;;;16.31;74.23;100299.53;839327;23;1338;-79
2022/10/21 02:00:14;;;;;;;25.25;16.17;;;;;;;16.27;74.34;100292.50;839555;23;1095;-79
2022/10/21 02:00:36;;;;;;;27.08;16.45;;;;;;;16.28;74.36;100292.50;837209;23;787;-79